Time;durP1;ratioP1;P1;durP2;ratioP2;P2;SDS_P1;SDS_P2;PMS_P1;PMS_P2;Temp;Humidity;BMP_temperature;BMP_pressure;BME280_temperature;BME280_humidity;BME280_pressure;Samples;Min_cycle;Max_cycle;Signal;HPM_P1;HPM_P2
2022/03/01 00:00:00;;;;;;;15.38;10.63;;;4.20;74.80;;;;;;4861453;29;20045;-60
2022/03/01 00:02:26;;;;;;;14.95;10.68;;;4.20;74.80;;;;;;4858911;29;20069;-59
2022/03/01 00:04:53;;;;;;;15.05;9.82;;;4.10;74.80;;;;;;4845885;29;20493;-59
2022/03/01 00:07:19;;;;;;;15.18;10.77;;;4.10;74.80;;;;;;4857343;29;20085;-59
2022/03/01 00:09:45;;;;;;;15.35;10.35;;;4.10;75.00;;;;;;4842812;29;20045;-59
2022/03/01 00:12:11;;;;;;;15.40;10.50;;;4.10;75.00;;;;;;4845333;29;20053;-60
2022/03/01 00:14:37;;;;;;;17.85;11.35;;;4.10;75.00;;;;;;4844152;29;20092;-59
2022/03/01 00:17:03;;;;;;;16.17;10.50;;;4.10;75.00;;;;;;4848292;29;20076;-59
2022/03/01 00:19:29;;;;;;;15.13;10.32;;;4.00;74.90;;;;;;4846516;29;20045;-59
2022/03/01 00:21:57;;;;;;;18.23;10.82;;;4.00;75.00;;;;;;4839304;29;20058;-59
2022/03/01 00:24:22;;;;;;;16.02;10.57;;;4.00;75.20;;;;;;4848371;29;20382;-59
2022/03/01 00:26:48;;;;;;;15.52;10.20;;;4.00;75.30;;;;;;4847412;29;20060;-59
2022/03/01 00:29:14;;;;;;;16.73;10.10;;;3.90;75.30;;;;;;4844583;29;20408;-59
2022/03/01 00:31:40;;;;;;;14.80;10.18;;;4.00;75.40;;;;;;4817498;29;20064;-59
2022/03/01 00:34:06;;;;;;;15.68;10.77;;;3.90;75.50;;;;;;4847837;29;20051;-59
2022/03/01 00:36:32;;;;;;;16.92;10.82;;;3.80;75.50;;;;;;4844315;29;20049;-59
2022/03/01 00:38:58;;;;;;;19.27;10.60;;;3.80;75.60;;;;;;4848437;29;20098;-59
2022/03/01 00:41:24;;;;;;;16.30;10.52;;;3.80;75.70;;;;;;4845434;29;20054;-59
2022/03/01 00:43:50;;;;;;;15.60;10.63;;;3.80;75.80;;;;;;4843444;29;20193;-60
2022/03/01 00:46:16;;;;;;;17.50;10.70;;;3.80;75.80;;;;;;4843503;29;20114;-59
2022/03/01 00:48:41;;;;;;;13.32;10.27;;;3.70;75.80;;;;;;4844444;29;20446;-59
2022/03/01 00:51:07;;;;;;;15.82;10.45;;;3.80;76.00;;;;;;4844383;29;20792;-59
2022/03/01 00:53:33;;;;;;;15.00;10.05;;;3.70;76.00;;;;;;4847724;29;20448;-59
2022/03/01 00:55:59;;;;;;;17.02;10.55;;;3.70;76.20;;;;;;4847394;29;20056;-59
2022/03/01 00:58:25;;;;;;;15.38;10.20;;;3.70;76.30;;;;;;4847422;29;20198;-59
2022/03/01 01:00:50;;;;;;;16.70;9.98;;;3.60;76.40;;;;;;4842776;29;20144;-59
2022/03/01 01:03:16;;;;;;;18.42;10.43;;;3.60;76.60;;;;;;4842488;29;20061;-59
2022/03/01 01:05:42;;;;;;;15.82;10.60;;;3.50;76.60;;;;;;4842288;29;20080;-59
2022/03/01 01:08:08;;;;;;;19.58;10.75;;;3.60;76.80;;;;;;4844067;29;20128;-59
2022/03/01 01:10:34;;;;;;;15.35;10.45;;;3.60;76.90;;;;;;4843932;29;20056;-59
2022/03/01 01:13:00;;;;;;;17.15;10.68;;;3.50;76.90;;;;;;4845751;29;20071;-59
2022/03/01 01:15:25;;;;;;;15.40;10.73;;;3.50;77.00;;;;;;4846776;29;20164;-59
2022/03/01 01:17:51;;;;;;;16.92;10.45;;;3.50;77.10;;;;;;4842553;29;20042;-59
2022/03/01 01:20:18;;;;;;;14.90;10.60;;;3.50;77.10;;;;;;4843083;29;20160;-59
2022/03/01 01:22:45;;;;;;;15.82;10.52;;;3.50;77.20;;;;;;4848233;29;20049;-59
2022/03/01 01:25:19;;;;;;;17.13;11.07;;;3.50;77.30;;;;;;4848235;29;20049;-59
2022/03/01 01:27:48;;;;;;;16.30;10.48;;;3.50;77.30;;;;;;4841457;29;20053;-59
2022/03/01 01:30:19;;;;;;;16.50;10.05;;;3.50;77.40;;;;;;4846321;29;20889;-60
2022/03/01 01:32:48;;;;;;;19.23;10.48;;;3.40;77.40;;;;;;4843117;29;20496;-60
2022/03/01 01:35:15;;;;;;;24.15;10.43;;;3.40;77.40;;;;;;4846365;29;20053;-59
2022/03/01 01:37:42;;;;;;;17.50;10.95;;;3.40;77.50;;;;;;4843905;29;20046;-59
2022/03/01 01:40:11;;;;;;;16.45;9.90;;;3.40;77.60;;;;;;4844465;29;20089;-59
2022/03/01 01:42:37;;;;;;;15.40;10.35;;;3.30;77.80;;;;;;4842943;29;20050;-60
2022/03/01 01:45:04;;;;;;;15.07;10.20;;;3.30;77.80;;;;;;4841455;29;20050;-59
2022/03/01 01:47:30;;;;;;;17.38;10.98;;;3.30;77.90;;;;;;4847451;29;20049;-59
2022/03/01 01:49:56;;;;;;;15.63;11.10;;;3.30;78.10;;;;;;4842605;29;20057;-58
2022/03/01 01:52:23;;;;;;;15.95;10.60;;;3.20;78.20;;;;;;4826493;29;20076;-59
2022/03/01 01:54:49;;;;;;;16.70;10.15;;;3.20;78.20;;;;;;4842857;29;20045;-58
2022/03/01 01:57:21;;;;;;;18.70;10.65;;;3.30;78.50;;;;;;4846548;29;20050;-59
2022/03/01 01:59:48;;;;;;;17.85;11.07;;;3.30;78.60;;;;;;4844314;29;20123;-59
2022/03/01 02:02:16;;;;;;;18.70;11.05;;;3.20;78.60;;;;;;4842975;29;20056;-59
2022/03/01 02:04:43;;;;;;;15.77;10.50;;;3.20;78.70;;;;;;4842601;29;20114;-59
2022/03/01 02:07:09;;;;;;;16.88;10.75;;;3.10;78.80;;;;;;4843289;29;20091;-58
2022/03/01 02:09:35;;;;;;;17.77;10.50;;;3.10;78.90;;;;;;4842778;29;20065;-59
2022/03/01 02:12:05;;;;;;;16.88;11.35;;;3.10;79.00;;;;;;4841015;29;20058;-59
2022/03/01 02:14:32;;;;;;;16.30;10.63;;;3.10;79.10;;;;;;4843476;29;20046;-59
2022/03/01 02:17:00;;;;;;;16.38;10.48;;;3.00;79.20;;;;;;4858127;29;20078;-59
2022/03/01 02:19:27;;;;;;;22.30;10.82;;;3.00;79.40;;;;;;4832275;29;20125;-58
2022/03/01 02:21:57;;;;;;;17.50;10.90;;;3.00;79.50;;;;;;4845841;29;20071;-59
2022/03/01 02:24:28;;;;;;;17.13;11.10;;;3.00;79.70;;;;;;4847498;29;20053;-59
2022/03/01 02:26:59;;;;;;;19.25;11.40;;;3.00;79.80;;;;;;4842509;29;20090;-59
2022/03/01 02:29:26;;;;;;;17.80;11.18;;;3.00;79.90;;;;;;4842499;29;20061;-59
2022/03/01 02:31:54;;;;;;;18.73;11.60;;;2.90;79.90;;;;;;4840611;29;20464;-60
2022/03/01 02:34:20;;;;;;;15.95;10.63;;;2.90;80.00;;;;;;4842651;29;20062;-59
2022/03/01 02:36:46;;;;;;;19.20;11.65;;;2.90;80.10;;;;;;4831130;29;20061;-60
2022/03/01 02:39:13;;;;;;;15.75;10.50;;;2.90;80.20;;;;;;4844198;29;20046;-59
2022/03/01 02:41:41;;;;;;;15.88;10.32;;;2.80;80.20;;;;;;4843929;29;20132;-60
2022/03/01 02:44:08;;;;;;;17.50;11.68;;;2.90;80.40;;;;;;4842514;29;20046;-59
2022/03/01 02:46:34;;;;;;;17.95;10.95;;;2.90;80.50;;;;;;4847000;29;20053;-60
2022/03/01 02:49:01;;;;;;;16.83;10.77;;;2.90;80.60;;;;;;4841434;29;20056;-59
2022/03/01 02:51:26;;;;;;;17.45;10.73;;;2.90;80.70;;;;;;4843662;29;21089;-59
2022/03/01 02:53:53;;;;;;;17.92;11.13;;;2.80;80.60;;;;;;4841163;29;20050;-60
2022/03/01 02:56:19;;;;;;;18.35;11.23;;;2.80;80.70;;;;;;4842160;29;20049;-60
2022/03/01 02:58:45;;;;;;;20.10;11.25;;;2.90;81.00;;;;;;4842557;29;20061;-59
2022/03/01 03:01:10;;;;;;;18.60;11.30;;;2.80;80.70;;;;;;4831324;29;20057;-60
2022/03/01 03:03:36;;;;;;;17.75;11.57;;;2.90;80.90;;;;;;4843145;29;20049;-60
2022/03/01 03:06:02;;;;;;;15.88;10.70;;;2.90;80.80;;;;;;4842032;29;20146;-59
2022/03/01 03:08:28;;;;;;;16.02;10.73;;;2.90;80.80;;;;;;4842931;29;20064;-60
2022/03/01 03:10:54;;;;;;;17.38;10.80;;;2.90;80.70;;;;;;4842457;29;20412;-59
2022/03/01 03:13:20;;;;;;;18.95;11.45;;;2.90;80.70;;;;;;4842204;29;20065;-59
2022/03/01 03:15:47;;;;;;;20.70;10.77;;;2.90;80.60;;;;;;4843777;29;20045;-59
2022/03/01 03:18:14;;;;;;;18.23;11.07;;;3.00;80.50;;;;;;4841963;29;23199;-59
2022/03/01 03:20:40;;;;;;;17.73;10.63;;;2.90;80.50;;;;;;4849020;29;22395;-60
2022/03/01 03:23:07;;;;;;;17.35;10.15;;;2.90;80.50;;;;;;4857769;29;20099;-59
2022/03/01 03:25:33;;;;;;;19.27;10.32;;;3.00;80.60;;;;;;4850234;29;20076;-59
2022/03/01 03:27:59;;;;;;;19.42;10.90;;;3.00;80.60;;;;;;4859943;29;21947;-58
2022/03/01 03:30:25;;;;;;;17.05;11.00;;;2.90;80.60;;;;;;4864367;29;20053;-59
2022/03/01 03:32:51;;;;;;;17.73;11.02;;;3.00;80.80;;;;;;4849489;29;20552;-59
2022/03/01 03:35:17;;;;;;;19.83;11.50;;;3.00;80.70;;;;;;4863853;29;20045;-59
2022/03/01 03:37:43;;;;;;;15.23;10.48;;;3.00;80.70;;;;;;4866095;29;20049;-59
2022/03/01 03:40:09;;;;;;;18.88;11.20;;;3.00;80.80;;;;;;4853378;29;20045;-59
2022/03/01 03:42:35;;;;;;;19.13;11.23;;;3.00;80.90;;;;;;4847513;29;20056;-59
2022/03/01 03:45:01;;;;;;;16.33;11.27;;;3.00;80.90;;;;;;4831511;29;20053;-59
2022/03/01 03:47:27;;;;;;;16.52;11.20;;;3.00;81.10;;;;;;4863300;29;20092;-59
2022/03/01 03:49:53;;;;;;;17.30;11.00;;;3.00;81.20;;;;;;4863207;29;20049;-59
2022/03/01 03:52:19;;;;;;;15.23;10.77;;;3.00;81.20;;;;;;4837218;29;20138;-60
2022/03/01 03:54:45;;;;;;;16.95;10.93;;;3.00;81.40;;;;;;4865267;29;20045;-58
2022/03/01 03:57:10;;;;;;;20.23;11.60;;;3.00;81.60;;;;;;4849734;29;20108;-60
2022/03/01 03:59:37;;;;;;;15.95;10.95;;;2.90;81.70;;;;;;4846603;29;20038;-58
2022/03/01 04:02:05;;;;;;;17.20;10.98;;;2.90;81.80;;;;;;4860697;29;20053;-59
2022/03/01 04:04:32;;;;;;;18.08;11.00;;;3.00;81.90;;;;;;4862391;29;20060;-59
2022/03/01 04:06:57;;;;;;;20.10;12.25;;;2.90;81.90;;;;;;4862931;29;20045;-59
2022/03/01 04:09:23;;;;;;;19.00;12.43;;;2.90;82.10;;;;;;4862854;29;20113;-59
2022/03/01 04:11:49;;;;;;;19.15;11.65;;;2.90;82.20;;;;;;4865195;29;20635;-59
2022/03/01 04:14:17;;;;;;;17.75;11.57;;;2.90;83.00;;;;;;4863685;29;20049;-59
2022/03/01 04:16:44;;;;;;;18.70;11.52;;;2.90;82.60;;;;;;4864799;29;20057;-59
2022/03/01 04:19:10;;;;;;;21.75;11.35;;;2.90;82.70;;;;;;4848235;29;20053;-59
2022/03/01 04:21:37;;;;;;;16.63;11.45;;;2.80;82.80;;;;;;4846830;29;20151;-59
2022/03/01 04:24:04;;;;;;;19.95;11.77;;;2.80;83.00;;;;;;4864048;29;20124;-60
2022/03/01 04:26:29;;;;;;;19.45;12.02;;;2.80;83.00;;;;;;4861618;29;20059;-59
2022/03/01 04:28:55;;;;;;;16.02;11.25;;;2.80;83.20;;;;;;4864301;29;20045;-59
2022/03/01 04:31:22;;;;;;;16.85;10.93;;;2.80;83.50;;;;;;4860429;29;20112;-59
2022/03/01 04:33:48;;;;;;;21.90;12.18;;;2.80;83.80;;;;;;4862831;29;20033;-59
2022/03/01 04:36:15;;;;;;;16.75;11.57;;;2.70;83.90;;;;;;4861046;29;20056;-59
2022/03/01 04:38:41;;;;;;;19.13;11.45;;;2.70;84.10;;;;;;4862597;29;20045;-59
2022/03/01 04:41:09;;;;;;;22.83;12.63;;;2.70;84.30;;;;;;4864034;29;20385;-59
2022/03/01 04:43:35;;;;;;;17.95;11.90;;;2.70;84.50;;;;;;4864045;29;20409;-59
2022/03/01 04:46:01;;;;;;;18.30;12.00;;;2.70;84.60;;;;;;4863533;29;20135;-59
2022/03/01 04:48:27;;;;;;;16.67;11.45;;;2.70;84.90;;;;;;4850547;29;20087;-59
2022/03/01 04:50:53;;;;;;;19.60;12.27;;;2.70;85.10;;;;;;4864416;29;20049;-59
2022/03/01 04:53:19;;;;;;;17.17;11.85;;;2.70;85.20;;;;;;4862834;29;20432;-59
2022/03/01 04:55:45;;;;;;;17.00;11.98;;;2.70;85.30;;;;;;4853786;29;20069;-59
2022/03/01 04:58:11;;;;;;;20.02;13.15;;;2.70;85.50;;;;;;4862267;29;20096;-60
2022/03/01 05:00:37;;;;;;;19.50;12.00;;;2.70;85.80;;;;;;4864354;29;20049;-60
2022/03/01 05:03:03;;;;;;;23.17;11.93;;;2.70;86.00;;;;;;4864287;29;20141;-59
2022/03/01 05:05:29;;;;;;;20.60;12.32;;;2.70;86.10;;;;;;4853872;29;20168;-59
2022/03/01 05:07:55;;;;;;;17.20;11.38;;;2.70;86.30;;;;;;4851785;29;20057;-59
2022/03/01 05:10:21;;;;;;;17.63;11.85;;;2.60;86.40;;;;;;4864200;29;20077;-60
2022/03/01 05:12:58;;;;;;;20.92;12.38;;;2.70;86.50;;;;;;4848870;29;20110;-59
2022/03/01 05:15:26;;;;;;;19.95;12.32;;;2.60;86.50;;;;;;4864973;29;20091;-59
2022/03/01 05:17:53;;;;;;;17.58;11.60;;;2.70;86.70;;;;;;4852762;29;20045;-60
2022/03/01 05:20:19;;;;;;;20.92;12.82;;;2.70;86.90;;;;;;4860821;29;20068;-60
2022/03/01 05:22:46;;;;;;;18.98;11.65;;;2.70;86.90;;;;;;4862241;29;20113;-58
2022/03/01 05:25:15;;;;;;;19.63;12.30;;;2.70;87.00;;;;;;4863479;29;20057;-60
2022/03/01 05:27:43;;;;;;;20.38;13.00;;;2.60;87.10;;;;;;4860992;29;20044;-59
2022/03/01 05:30:11;;;;;;;20.33;12.65;;;2.70;87.10;;;;;;4864026;29;20081;-60
2022/03/01 05:32:39;;;;;;;19.58;11.98;;;2.70;87.40;;;;;;4863597;29;20057;-59
2022/03/01 05:35:09;;;;;;;20.40;12.52;;;2.60;87.40;;;;;;4838542;29;20615;-59
2022/03/01 05:37:36;;;;;;;20.85;12.90;;;2.70;87.50;;;;;;4864583;29;20484;-60
2022/03/01 05:40:04;;;;;;;24.40;12.48;;;2.60;87.70;;;;;;4867041;29;20045;-60
2022/03/01 05:42:30;;;;;;;18.33;12.73;;;2.60;87.70;;;;;;4863643;29;20046;-60
2022/03/01 05:44:56;;;;;;;19.33;12.77;;;2.70;87.80;;;;;;4866690;29;20052;-59
2022/03/01 05:47:22;;;;;;;20.30;12.98;;;2.70;87.80;;;;;;4852498;29;20061;-59
2022/03/01 05:49:48;;;;;;;19.98;12.18;;;2.70;87.90;;;;;;4853127;29;20057;-60
2022/03/01 05:52:14;;;;;;;21.20;12.75;;;2.70;88.00;;;;;;4865534;29;21318;-59
2022/03/01 05:54:40;;;;;;;19.65;12.57;;;2.70;88.10;;;;;;4862351;29;20037;-59
2022/03/01 05:57:06;;;;;;;19.75;12.73;;;2.70;88.40;;;;;;4863053;29;20184;-59
2022/03/01 05:59:32;;;;;;;18.08;12.80;;;2.70;88.50;;;;;;4847285;29;20064;-60
2022/03/01 06:01:58;;;;;;;23.17;14.40;;;2.70;88.50;;;;;;4860759;29;20060;-59
2022/03/01 06:04:24;;;;;;;19.75;12.65;;;2.70;88.50;;;;;;4841488;29;20075;-60
2022/03/01 06:06:49;;;;;;;18.88;12.88;;;2.70;88.70;;;;;;4852963;29;20148;-59
2022/03/01 06:09:15;;;;;;;22.33;13.75;;;2.70;88.50;;;;;;4860891;29;20053;-59
2022/03/01 06:11:41;;;;;;;21.58;13.40;;;2.70;88.50;;;;;;4851726;29;20124;-59
2022/03/01 06:14:07;;;;;;;19.58;12.27;;;2.70;88.80;;;;;;4831114;29;20053;-59
2022/03/01 06:16:33;;;;;;;19.98;13.27;;;2.70;88.90;;;;;;4862056;29;20552;-59
2022/03/01 06:18:59;;;;;;;21.08;13.45;;;2.80;89.10;;;;;;4846526;29;20185;-59
2022/03/01 06:21:25;;;;;;;20.73;13.75;;;2.70;89.30;;;;;;4861130;29;20536;-59
2022/03/01 06:23:50;;;;;;;20.35;13.65;;;2.70;89.30;;;;;;4861848;29;20062;-60
2022/03/01 06:26:16;;;;;;;22.83;13.40;;;2.70;89.30;;;;;;4864311;29;20052;-59
2022/03/01 06:28:42;;;;;;;24.58;13.35;;;2.70;89.50;;;;;;4858147;29;20041;-59
2022/03/01 06:31:08;;;;;;;22.90;13.55;;;2.70;89.60;;;;;;4859007;29;20096;-59
2022/03/01 06:33:34;;;;;;;21.10;13.38;;;2.70;89.70;;;;;;4849315;29;20132;-59
2022/03/01 06:36:00;;;;;;;26.58;13.63;;;2.80;90.00;;;;;;4859948;29;20049;-59
2022/03/01 06:38:26;;;;;;;21.88;13.40;;;2.70;90.10;;;;;;4862051;29;20064;-59
2022/03/01 06:40:56;;;;;;;19.45;13.40;;;2.70;90.30;;;;;;4865654;29;20569;-60
2022/03/01 06:43:25;;;;;;;21.63;13.77;;;2.80;90.30;;;;;;4851315;29;20072;-59
2022/03/01 06:45:51;;;;;;;21.02;13.30;;;2.80;90.30;;;;;;4865482;29;20143;-59
2022/03/01 06:48:17;;;;;;;24.70;13.98;;;2.80;90.30;;;;;;4861541;29;20140;-59
2022/03/01 06:50:44;;;;;;;22.70;12.98;;;2.80;90.30;;;;;;4863642;29;20480;-58
2022/03/01 06:53:11;;;;;;;20.50;12.98;;;2.80;90.30;;;;;;4861233;29;20408;-58
2022/03/01 06:55:37;;;;;;;20.77;13.90;;;2.80;90.40;;;;;;4864915;29;20128;-59
2022/03/01 06:58:03;;;;;;;25.83;14.50;;;2.90;90.40;;;;;;4851309;29;20176;-59
2022/03/01 07:00:29;;;;;;;20.73;13.48;;;2.90;90.40;;;;;;4861088;29;20155;-59
2022/03/01 07:02:54;;;;;;;21.30;13.48;;;2.90;90.30;;;;;;4860655;29;20052;-58
2022/03/01 07:05:20;;;;;;;20.45;13.70;;;2.90;90.30;;;;;;4844128;29;20052;-59
2022/03/01 07:07:46;;;;;;;20.70;13.70;;;3.00;90.30;;;;;;4860273;29;20771;-60
2022/03/01 07:10:13;;;;;;;24.13;13.63;;;3.00;90.20;;;;;;4861159;29;20041;-59
2022/03/01 07:12:40;;;;;;;19.83;14.18;;;3.00;90.10;;;;;;4858450;29;20173;-61
2022/03/01 07:15:07;;;;;;;21.33;13.38;;;3.10;90.10;;;;;;4860897;29;20049;-58
2022/03/01 07:17:33;;;;;;;22.63;13.45;;;3.10;90.10;;;;;;4862815;29;20073;-58
2022/03/01 07:19:59;;;;;;;22.95;13.95;;;3.10;90.00;;;;;;4861132;29;20148;-58
2022/03/01 07:22:25;;;;;;;20.58;13.68;;;3.10;90.00;;;;;;4860610;29;20049;-58
2022/03/01 07:24:51;;;;;;;21.25;13.40;;;3.20;90.00;;;;;;4863802;29;20057;-59
2022/03/01 07:27:17;;;;;;;22.85;13.60;;;3.20;90.00;;;;;;4861706;29;20140;-57
2022/03/01 07:29:42;;;;;;;22.77;14.30;;;3.30;90.00;;;;;;4853007;29;20057;-59
2022/03/01 07:32:09;;;;;;;22.38;13.32;;;3.30;89.90;;;;;;4863084;29;21166;-58
2022/03/01 07:34:36;;;;;;;21.92;14.25;;;3.30;89.90;;;;;;4861821;29;20052;-58
2022/03/01 07:37:04;;;;;;;19.40;13.77;;;3.40;90.00;;;;;;4861293;29;20548;-59
2022/03/01 07:39:30;;;;;;;20.95;13.80;;;3.40;90.00;;;;;;4862193;29;20508;-57
2022/03/01 07:41:55;;;;;;;19.17;13.07;;;3.40;89.70;;;;;;4852210;29;20092;-58
2022/03/01 07:44:21;;;;;;;21.02;13.73;;;3.50;89.90;;;;;;4861318;29;20045;-58
2022/03/01 07:46:47;;;;;;;18.73;12.93;;;3.50;89.70;;;;;;4863391;29;20053;-58
2022/03/01 07:49:13;;;;;;;20.08;13.05;;;3.50;89.10;;;;;;4862422;29;20041;-58
2022/03/01 07:51:39;;;;;;;21.02;13.55;;;3.50;88.80;;;;;;4861363;29;20082;-58
2022/03/01 07:54:05;;;;;;;22.90;14.27;;;3.60;88.90;;;;;;4858165;29;20083;-58
2022/03/01 07:56:30;;;;;;;22.70;14.10;;;3.50;88.70;;;;;;4858655;29;20049;-58
2022/03/01 07:58:56;;;;;;;23.75;13.75;;;3.60;88.60;;;;;;4859382;29;20472;-59
2022/03/01 08:01:22;;;;;;;20.75;13.88;;;3.60;88.50;;;;;;4859500;29;20688;-56
2022/03/01 08:03:49;;;;;;;19.70;13.38;;;3.60;88.40;;;;;;4859506;29;20053;-58
2022/03/01 08:06:16;;;;;;;19.73;13.05;;;3.70;88.20;;;;;;4858657;29;20052;-58
2022/03/01 08:08:41;;;;;;;24.58;13.85;;;3.60;88.20;;;;;;4871919;29;20052;-59
2022/03/01 08:11:08;;;;;;;28.50;14.07;;;3.70;88.50;;;;;;4860665;29;20057;-58
2022/03/01 08:13:35;;;;;;;22.00;13.60;;;3.70;88.50;;;;;;4859792;29;20050;-59
2022/03/01 08:16:02;;;;;;;23.63;14.38;;;3.70;88.10;;;;;;4861070;29;20542;-59
2022/03/01 08:18:27;;;;;;;21.25;13.77;;;3.80;88.10;;;;;;4862698;29;20052;-57
2022/03/01 08:20:53;;;;;;;19.90;13.73;;;3.70;87.90;;;;;;4862190;29;20065;-55
2022/03/01 08:23:19;;;;;;;21.23;13.60;;;3.70;87.90;;;;;;4863478;29;20060;-59
2022/03/01 08:25:46;;;;;;;20.83;13.32;;;3.80;88.00;;;;;;4846427;29;20052;-57
2022/03/01 08:28:13;;;;;;;21.00;14.32;;;3.80;87.90;;;;;;4863245;29;20416;-58
2022/03/01 08:30:39;;;;;;;20.00;12.52;;;3.80;88.00;;;;;;4847098;29;20143;-58
2022/03/01 08:33:05;;;;;;;30.25;14.57;;;3.80;87.80;;;;;;4852335;29;20044;-58
2022/03/01 08:35:35;;;;;;;22.50;14.10;;;3.80;87.80;;;;;;4864090;29;20462;-58
2022/03/01 08:38:03;;;;;;;22.67;13.93;;;3.90;87.50;;;;;;4863239;29;20585;-58
2022/03/01 08:40:32;;;;;;;21.95;13.75;;;3.90;87.50;;;;;;4865930;29;20048;-57
2022/03/01 08:42:58;;;;;;;20.92;13.85;;;3.90;87.50;;;;;;4861889;29;20077;-59
2022/03/01 08:45:24;;;;;;;19.92;12.90;;;4.00;87.80;;;;;;4860832;29;20084;-58
2022/03/01 08:47:51;;;;;;;23.88;14.68;;;4.10;88.20;;;;;;4861766;29;20131;-59
2022/03/01 08:50:17;;;;;;;22.88;13.75;;;4.10;88.80;;;;;;4864414;29;20478;-57
2022/03/01 08:52:42;;;;;;;22.08;14.07;;;4.20;88.00;;;;;;4857883;29;20049;-58
2022/03/01 08:55:09;;;;;;;20.38;13.68;;;4.30;88.20;;;;;;4851551;29;20049;-58
2022/03/01 08:57:35;;;;;;;20.13;14.15;;;4.30;87.80;;;;;;4849468;29;20049;-58
2022/03/01 09:00:03;;;;;;;21.73;13.75;;;4.40;87.30;;;;;;4862915;29;20041;-59
2022/03/01 09:02:29;;;;;;;21.27;14.13;;;4.50;87.20;;;;;;4859839;29;20073;-58
2022/03/01 09:04:54;;;;;;;26.08;14.25;;;4.60;87.30;;;;;;4840203;29;20064;-59
2022/03/01 09:07:20;;;;;;;22.02;13.75;;;4.60;87.50;;;;;;4860474;29;20048;-56
2022/03/01 09:09:46;;;;;;;25.73;15.07;;;4.70;87.50;;;;;;4862355;29;20052;-59
2022/03/01 09:12:12;;;;;;;21.95;14.25;;;4.90;87.40;;;;;;4865684;29;20049;-57
2022/03/01 09:14:37;;;;;;;24.52;14.27;;;5.00;86.90;;;;;;4846188;29;20045;-59
2022/03/01 09:17:03;;;;;;;22.33;14.75;;;5.10;86.50;;;;;;4860468;29;20378;-57
2022/03/01 09:19:29;;;;;;;23.70;15.00;;;5.10;85.90;;;;;;4862285;29;20399;-58
2022/03/01 09:21:56;;;;;;;21.92;14.02;;;5.20;85.60;;;;;;4859193;29;20061;-59
2022/03/01 09:24:22;;;;;;;23.10;15.13;;;5.20;85.30;;;;;;4863147;29;20061;-59
2022/03/01 09:26:48;;;;;;;24.67;14.38;;;5.40;85.10;;;;;;4858684;29;20179;-57
2022/03/01 09:29:14;;;;;;;24.05;15.60;;;5.30;84.70;;;;;;4864106;29;20081;-56
2022/03/01 09:31:40;;;;;;;22.75;14.40;;;5.40;84.50;;;;;;4863535;29;20480;-59
2022/03/01 09:34:06;;;;;;;22.95;14.15;;;5.40;84.60;;;;;;4861006;29;20050;-58
2022/03/01 09:36:32;;;;;;;23.23;14.35;;;5.40;84.70;;;;;;4862507;29;20052;-57
2022/03/01 09:38:58;;;;;;;22.45;14.95;;;5.40;84.50;;;;;;4859592;29;20048;-58
2022/03/01 09:41:24;;;;;;;21.15;14.13;;;5.50;84.50;;;;;;4862342;29;20167;-58
2022/03/01 09:43:56;;;;;;;25.95;15.02;;;5.50;84.10;;;;;;4860343;29;20050;-59
2022/03/01 09:46:22;;;;;;;23.75;14.80;;;5.50;84.30;;;;;;4860680;29;20076;-58
2022/03/01 09:48:47;;;;;;;24.75;15.43;;;5.50;84.80;;;;;;4862479;29;20072;-59
2022/03/01 09:51:14;;;;;;;21.65;14.60;;;5.50;85.10;;;;;;4862052;29;20462;-58
2022/03/01 09:53:41;;;;;;;20.83;14.63;;;5.60;85.30;;;;;;4834652;29;20048;-59
2022/03/01 09:56:08;;;;;;;27.60;15.25;;;5.60;85.20;;;;;;4862288;29;20045;-58
2022/03/01 09:58:35;;;;;;;21.50;14.80;;;5.60;85.20;;;;;;4861057;29;20049;-57
2022/03/01 10:01:01;;;;;;;23.17;15.25;;;5.70;85.10;;;;;;4860108;29;20045;-58
2022/03/01 10:03:28;;;;;;;21.45;14.27;;;5.90;85.50;;;;;;4849214;29;20059;-59
2022/03/01 10:06:04;;;;;;;22.17;14.57;;;6.00;85.20;;;;;;4861663;29;20053;-56
2022/03/01 10:08:31;;;;;;;22.00;15.02;;;6.10;84.70;;;;;;4859744;29;20907;-56
2022/03/01 10:10:57;;;;;;;25.23;15.57;;;6.30;84.30;;;;;;4860162;29;20049;-59
2022/03/01 10:13:27;;;;;;;24.13;15.35;;;6.40;84.20;;;;;;4860290;29;20473;-59
2022/03/01 10:16:14;;;;;;;24.42;16.13;;;6.60;83.60;;;;;;4861158;29;20055;-58
2022/03/01 10:18:52;;;;;;;21.70;14.38;;;6.60;82.30;;;;;;4852127;29;20047;-58
2022/03/01 10:21:19;;;;;;;26.73;14.70;;;6.70;82.30;;;;;;4846797;29;20837;-59
2022/03/01 10:23:52;;;;;;;19.67;14.07;;;6.80;81.60;;;;;;4842221;29;20057;-59
2022/03/01 10:26:19;;;;;;;23.40;14.40;;;6.90;81.40;;;;;;4843248;29;20498;-59
2022/03/01 10:28:46;;;;;;;21.48;14.73;;;6.90;80.90;;;;;;4842057;29;20544;-59
2022/03/01 10:31:18;;;;;;;22.05;15.07;;;7.00;80.80;;;;;;4844705;29;20054;-57
2022/03/01 10:34:00;;;;;;;24.80;15.57;;;7.10;80.50;;;;;;4844359;29;20189;-58
2022/03/01 10:36:49;;;;;;;26.25;15.10;;;7.20;80.00;;;;;;4843792;29;20046;-58
2022/03/01 10:39:29;;;;;;;25.17;15.07;;;7.20;80.50;;;;;;4843656;29;20071;-55
2022/03/01 10:41:55;;;;;;;20.95;14.77;;;7.20;81.20;;;;;;4843288;29;20057;-57
2022/03/01 10:44:28;;;;;;;20.23;14.93;;;7.30;81.10;;;;;;4844445;29;20056;-58
2022/03/01 10:46:59;;;;;;;22.83;14.77;;;7.30;80.70;;;;;;4841591;29;22600;-58
2022/03/01 10:49:32;;;;;;;22.20;14.27;;;7.40;80.60;;;;;;4843956;29;20494;-58
2022/03/01 10:52:02;;;;;;;21.05;14.52;;;7.50;79.80;;;;;;4842127;29;20073;-57
2022/03/01 10:54:32;;;;;;;23.70;15.25;;;7.60;80.00;;;;;;4841846;29;20128;-59
2022/03/01 10:56:59;;;;;;;22.30;15.70;;;7.70;80.50;;;;;;4840166;29;20148;-58
2022/03/01 10:59:27;;;;;;;19.65;14.85;;;7.70;80.40;;;;;;4842172;29;20049;-59
2022/03/01 11:01:54;;;;;;;24.13;15.32;;;7.90;80.60;;;;;;4835167;29;20057;-58
2022/03/01 11:04:25;;;;;;;21.52;14.82;;;7.90;80.50;;;;;;4855005;29;20486;-58
2022/03/01 11:06:53;;;;;;;25.85;15.50;;;8.00;79.80;;;;;;4842325;29;20109;-58
2022/03/01 11:09:23;;;;;;;23.40;14.93;;;8.10;79.30;;;;;;4845290;29;20489;-59
2022/03/01 11:11:51;;;;;;;20.70;15.02;;;8.10;79.00;;;;;;4843512;29;20050;-58
2022/03/01 11:14:35;;;;;;;22.63;14.90;;;8.10;78.80;;;;;;4845499;29;20041;-58
2022/03/01 11:17:31;;;;;;;22.92;15.32;;;8.20;78.40;;;;;;4842382;29;20149;-58
2022/03/01 11:20:06;;;;;;;24.25;15.50;;;8.20;77.80;;;;;;4845370;29;20081;-58
2022/03/01 11:22:43;;;;;;;21.05;14.43;;;8.20;77.40;;;;;;4842304;29;20500;-59
2022/03/01 11:25:20;;;;;;;22.58;14.05;;;8.20;77.30;;;;;;4862262;29;20049;-59
2022/03/01 11:28:01;;;;;;;21.50;14.63;;;8.20;77.30;;;;;;4859819;29;20656;-58
2022/03/01 11:30:32;;;;;;;21.80;14.75;;;8.20;76.60;;;;;;4860719;29;20076;-59
2022/03/01 11:32:59;;;;;;;20.83;14.57;;;8.20;76.50;;;;;;4860571;29;20431;-58
2022/03/01 11:35:28;;;;;;;23.63;15.85;;;8.10;76.50;;;;;;4864027;29;20544;-58
2022/03/01 11:38:12;;;;;;;19.80;15.05;;;8.10;77.10;;;;;;4861268;29;20256;-59
2022/03/01 11:40:44;;;;;;;23.75;16.67;;;8.10;77.50;;;;;;4862193;29;20049;-58
2022/03/01 11:43:16;;;;;;;22.60;15.20;;;8.10;76.90;;;;;;4860912;29;20049;-58
2022/03/01 11:45:49;;;;;;;23.17;16.52;;;8.10;77.00;;;;;;4862288;29;20077;-57
2022/03/01 11:48:29;;;;;;;27.30;15.98;;;8.00;77.00;;;;;;4862251;29;20041;-58
2022/03/01 11:51:03;;;;;;;24.42;15.45;;;8.00;77.30;;;;;;4864411;29;20117;-58
2022/03/01 11:53:37;;;;;;;22.27;15.77;;;8.00;77.90;;;;;;4862263;29;20514;-59
2022/03/01 11:56:05;;;;;;;26.85;15.75;;;7.90;78.40;;;;;;4863617;29;20045;-57
2022/03/01 11:58:34;;;;;;;24.08;15.48;;;8.00;78.40;;;;;;4861500;29;20606;-57
2022/03/01 12:01:05;;;;;;;23.92;15.95;;;8.00;78.40;;;;;;4861814;29;20049;-59
2022/03/01 12:03:35;;;;;;;23.80;16.38;;;7.90;77.90;;;;;;4866001;29;20548;-58
2022/03/01 12:06:03;;;;;;;22.35;15.63;;;7.90;78.00;;;;;;4863589;29;20056;-58
2022/03/01 12:08:29;;;;;;;33.28;16.27;;;7.90;78.00;;;;;;4861649;29;20044;-59
2022/03/01 12:11:07;;;;;;;22.85;16.35;;;7.80;77.90;;;;;;4864373;29;20096;-58
2022/03/01 12:13:35;;;;;;;23.73;16.08;;;7.80;77.50;;;;;;4863367;29;20045;-56
2022/03/01 12:16:01;;;;;;;21.77;15.45;;;7.80;77.50;;;;;;4864625;29;20045;-58
2022/03/01 12:18:29;;;;;;;21.35;15.68;;;7.80;77.60;;;;;;4844814;29;20045;-58
2022/03/01 12:21:01;;;;;;;23.45;16.00;;;7.80;78.40;;;;;;4863929;29;20068;-59
2022/03/01 12:23:30;;;;;;;21.40;15.30;;;7.80;78.70;;;;;;4862280;29;20137;-58
2022/03/01 12:26:03;;;;;;;23.60;15.88;;;7.80;78.60;;;;;;4865275;29;20502;-57
2022/03/01 12:28:56;;;;;;;22.27;15.68;;;7.80;78.50;;;;;;4863613;29;20049;-58
2022/03/01 12:31:25;;;;;;;23.48;16.27;;;7.90;77.90;;;;;;4862913;29;20096;-59
2022/03/01 12:34:05;;;;;;;22.52;15.57;;;7.90;78.60;;;;;;4861862;29;20738;-59
2022/03/01 12:36:32;;;;;;;21.00;15.75;;;7.90;78.50;;;;;;4865982;29;20053;-58
2022/03/01 12:39:07;;;;;;;23.80;16.15;;;8.00;78.40;;;;;;4863297;29;20124;-58